Time;durP1;ratioP1;P1;durP2;ratioP2;P2;SDS_P1;SDS_P2;PMS_P1;PMS_P2;Temp;Humidity;BMP_temperature;BMP_pressure;BME280_temperature;BME280_humidity;BME280_pressure;Samples;Min_cycle;Max_cycle;Signal;HPM_P1;HPM_P2
2021/06/16 00:01:32;;;;;;;9.95;6.30;;;;;;;;;;5067779;28;20072;-37
2021/06/16 00:03:59;;;;;;;12.57;6.28;;;;;;;;;;5072072;28;20044;-36
2021/06/16 00:06:26;;;;;;;9.05;6.90;;;;;;;;;;5068433;28;20413;-37
2021/06/16 00:08:53;;;;;;;8.60;5.82;;;;;;;;;;5073908;28;20052;-36
2021/06/16 00:11:20;;;;;;;9.23;5.90;;;;;;;;;;5061472;28;20053;-36
2021/06/16 00:13:47;;;;;;;11.75;7.18;;;;;;;;;;5068122;28;20463;-36
2021/06/16 00:16:13;;;;;;;8.48;6.28;;;;;;;;;;5071664;28;20072;-37
2021/06/16 00:18:40;;;;;;;10.52;6.05;;;;;;;;;;5064319;28;20355;-36
2021/06/16 00:21:07;;;;;;;10.40;6.47;;;;;;;;;;5072455;28;20102;-36
2021/06/16 00:23:34;;;;;;;9.57;6.20;;;;;;;;;;5071045;28;20048;-36
2021/06/16 00:26:00;;;;;;;9.85;6.20;;;;;;;;;;5070498;28;20090;-36
2021/06/16 00:28:27;;;;;;;12.90;6.10;;;;;;;;;;5052569;28;20480;-35
2021/06/16 00:30:54;;;;;;;9.43;5.22;;;;;;;;;;5065184;28;20139;-36
2021/06/16 00:33:21;;;;;;;8.20;5.30;;;;;;;;;;5071517;28;20102;-36
2021/06/16 00:35:48;;;;;;;7.97;4.82;;;;;;;;;;5062841;28;20122;-37
2021/06/16 00:38:14;;;;;;;8.15;5.47;;;;;;;;;;5084477;22;20128;-36
2021/06/16 00:40:41;;;;;;;8.85;5.30;;;;;;;;;;5072234;28;20044;-36
2021/06/16 00:43:08;;;;;;;7.50;5.78;;;;;;;;;;5068954;28;20099;-36
2021/06/16 00:45:35;;;;;;;8.80;5.35;;;;;;;;;;5086226;28;20842;-36
2021/06/16 00:48:02;;;;;;;7.03;5.75;;;;;;;;;;5064600;28;20040;-36
2021/06/16 00:50:30;;;;;;;8.00;5.85;;;;;;;;;;5060694;28;20075;-36
2021/06/16 00:52:57;;;;;;;8.60;5.68;;;;;;;;;;5078344;28;20725;-36
2021/06/16 00:55:24;;;;;;;9.57;6.30;;;;;;;;;;5070313;28;20532;-36
2021/06/16 00:57:51;;;;;;;10.25;5.32;;;;;;;;;;5071810;28;20127;-36
2021/06/16 01:00:20;;;;;;;9.27;5.65;;;;;;;;;;5071402;28;20075;-36
2021/06/16 01:02:52;;;;;;;8.77;5.57;;;;;;;;;;5066007;28;20402;-36
2021/06/16 01:05:19;;;;;;;8.82;5.93;;;;;;;;;;5069346;28;20037;-35
2021/06/16 01:07:51;;;;;;;9.23;5.68;;;;;;;;;;5056845;28;20493;-36
2021/06/16 01:10:22;;;;;;;9.20;5.22;;;;;;;;;;5069269;28;20045;-36
2021/06/16 01:13:07;;;;;;;7.53;5.32;;;;;;;;;;5067862;28;20056;-36
2021/06/16 01:15:41;;;;;;;10.35;5.40;;;;;;;;;;5074796;28;20060;-36
2021/06/16 01:18:08;;;;;;;9.23;5.72;;;;;;;;;;5071721;28;20045;-36
2021/06/16 01:20:35;;;;;;;8.07;5.47;;;;;;;;;;5072046;28;20639;-36
2021/06/16 01:23:08;;;;;;;8.10;4.85;;;;;;;;;;5068274;28;20048;-36
2021/06/16 01:25:53;;;;;;;8.55;5.57;;;;;;;;;;5074291;28;20087;-35
2021/06/16 01:28:21;;;;;;;9.13;5.63;;;;;;;;;;5071688;28;20467;-36
2021/06/16 01:30:49;;;;;;;10.50;5.18;;;;;;;;;;5070151;28;20055;-36
2021/06/16 01:33:17;;;;;;;8.50;4.97;;;;;;;;;;5071040;28;20044;-36
2021/06/16 01:35:46;;;;;;;7.97;4.90;;;;;;;;;;5072526;28;20212;-36
2021/06/16 01:38:15;;;;;;;7.95;4.78;;;;;;;;;;5070514;28;20048;-35
2021/06/16 01:40:44;;;;;;;8.95;4.88;;;;;;;;;;5069909;28;20075;-35
2021/06/16 01:43:11;;;;;;;8.93;4.88;;;;;;;;;;5072531;28;20064;-35
2021/06/16 01:45:39;;;;;;;8.27;4.75;;;;;;;;;;5070629;28;20041;-35
2021/06/16 01:48:08;;;;;;;8.60;5.25;;;;;;;;;;5068428;28;20487;-35
2021/06/16 01:50:35;;;;;;;7.80;5.07;;;;;;;;;;5071392;28;20068;-35
2021/06/16 01:53:02;;;;;;;7.75;4.78;;;;;;;;;;5070711;28;20096;-35
2021/06/16 01:55:30;;;;;;;7.07;4.55;;;;;;;;;;5071229;28;20080;-35
2021/06/16 01:57:58;;;;;;;7.13;4.97;;;;;;;;;;5067588;28;20048;-35
2021/06/16 02:00:25;;;;;;;6.53;4.75;;;;;;;;;;5071909;28;20069;-36
2021/06/16 02:02:52;;;;;;;6.65;4.70;;;;;;;;;;5071426;28;20446;-35
2021/06/16 02:05:20;;;;;;;8.93;4.80;;;;;;;;;;5067035;28;20041;-35
2021/06/16 02:08:07;;;;;;;11.85;4.93;;;;;;;;;;5066052;28;20083;-35
2021/06/16 02:10:36;;;;;;;7.30;4.78;;;;;;;;;;5076079;28;20064;-35
2021/06/16 02:13:07;;;;;;;7.95;4.90;;;;;;;;;;5075766;28;20158;-35
2021/06/16 02:15:36;;;;;;;8.05;5.18;;;;;;;;;;5061142;28;20463;-35
2021/06/16 02:18:04;;;;;;;6.57;4.50;;;;;;;;;;5067845;28;20497;-36
2021/06/16 02:20:31;;;;;;;8.60;4.65;;;;;;;;;;5075646;28;20139;-36
2021/06/16 02:22:58;;;;;;;8.68;4.90;;;;;;;;;;5055796;28;20136;-36
2021/06/16 02:25:25;;;;;;;6.22;4.70;;;;;;;;;;5070712;28;20120;-36
2021/06/16 02:27:51;;;;;;;5.22;4.00;;;;;;;;;;5074647;28;20410;-35
2021/06/16 02:30:20;;;;;;;7.00;4.70;;;;;;;;;;5084417;28;20059;-35
2021/06/16 02:32:46;;;;;;;6.93;4.70;;;;;;;;;;5062711;28;20580;-35
2021/06/16 02:35:14;;;;;;;7.53;5.15;;;;;;;;;;5067207;28;20512;-35
2021/06/16 02:37:44;;;;;;;6.65;4.57;;;;;;;;;;5072138;28;20048;-35
2021/06/16 02:40:12;;;;;;;6.65;4.60;;;;;;;;;;5073194;28;20064;-36
2021/06/16 02:42:40;;;;;;;7.43;4.82;;;;;;;;;;5075062;28;20044;-36
2021/06/16 02:45:08;;;;;;;6.53;4.43;;;;;;;;;;5074774;28;20076;-36
2021/06/16 02:47:39;;;;;;;7.75;4.82;;;;;;;;;;5069776;28;20469;-37
2021/06/16 02:50:08;;;;;;;6.68;4.80;;;;;;;;;;5055259;28;20045;-37
2021/06/16 02:52:35;;;;;;;7.97;4.50;;;;;;;;;;5055744;28;20053;-35
2021/06/16 02:55:04;;;;;;;7.13;4.75;;;;;;;;;;5065254;28;20053;-37
2021/06/16 02:57:33;;;;;;;6.13;4.32;;;;;;;;;;5064627;28;20105;-37
2021/06/16 03:00:02;;;;;;;7.22;4.65;;;;;;;;;;5056578;28;20080;-36
2021/06/16 03:02:30;;;;;;;6.15;4.72;;;;;;;;;;5074497;28;20040;-36
2021/06/16 03:04:58;;;;;;;6.03;4.07;;;;;;;;;;5068580;28;20038;-34
2021/06/16 03:07:25;;;;;;;6.40;4.28;;;;;;;;;;5062508;28;20135;-34
2021/06/16 03:09:53;;;;;;;9.88;4.25;;;;;;;;;;5074793;28;20045;-35
2021/06/16 03:12:21;;;;;;;6.07;4.32;;;;;;;;;;5069994;28;20071;-35
2021/06/16 03:14:49;;;;;;;8.40;4.63;;;;;;;;;;5060196;28;20053;-35
2021/06/16 03:17:16;;;;;;;5.90;4.20;;;;;;;;;;5072121;28;20513;-35
2021/06/16 03:19:44;;;;;;;7.20;4.30;;;;;;;;;;5068277;28;20094;-36
2021/06/16 03:22:11;;;;;;;7.63;4.10;;;;;;;;;;5074932;28;20052;-35
2021/06/16 03:24:40;;;;;;;5.65;4.00;;;;;;;;;;5074602;28;20072;-36
2021/06/16 03:27:07;;;;;;;7.38;4.18;;;;;;;;;;5073950;28;20040;-35
2021/06/16 03:29:34;;;;;;;11.05;4.47;;;;;;;;;;5076746;28;20181;-35
2021/06/16 03:32:02;;;;;;;6.90;4.00;;;;;;;;;;5075264;28;20036;-36
2021/06/16 03:34:30;;;;;;;5.88;3.88;;;;;;;;;;5058766;28;20076;-35
2021/06/16 03:36:59;;;;;;;6.75;4.20;;;;;;;;;;5059243;28;20083;-35
2021/06/16 03:39:26;;;;;;;6.22;4.22;;;;;;;;;;5076326;28;20401;-35
2021/06/16 03:41:53;;;;;;;7.47;4.38;;;;;;;;;;5075643;28;20048;-35
2021/06/16 03:44:21;;;;;;;9.10;4.70;;;;;;;;;;5073325;28;20534;-36
2021/06/16 03:46:48;;;;;;;7.75;4.20;;;;;;;;;;5078399;28;20052;-35
2021/06/16 03:49:15;;;;;;;6.95;4.25;;;;;;;;;;5061730;28;20049;-35
2021/06/16 03:51:43;;;;;;;5.25;3.83;;;;;;;;;;5059819;28;20088;-36
2021/06/16 03:54:15;;;;;;;5.88;3.88;;;;;;;;;;5080367;28;20497;-35
2021/06/16 03:56:42;;;;;;;8.95;4.35;;;;;;;;;;5078892;28;20074;-35
2021/06/16 03:59:10;;;;;;;7.22;3.92;;;;;;;;;;5060910;28;20059;-35
2021/06/16 04:01:38;;;;;;;10.45;4.38;;;;;;;;;;5078928;28;20049;-41
2021/06/16 04:04:09;;;;;;;8.73;4.55;;;;;;;;;;5077808;28;20049;-36
2021/06/16 04:06:37;;;;;;;8.90;4.88;;;;;;;;;;5075229;28;20052;-36
2021/06/16 04:09:04;;;;;;;9.20;4.82;;;;;;;;;;5075137;28;20417;-36
2021/06/16 04:11:31;;;;;;;6.85;4.25;;;;;;;;;;5073727;28;20110;-36
2021/06/16 04:13:59;;;;;;;11.43;4.95;;;;;;;;;;5074261;28;20072;-36
2021/06/16 04:16:26;;;;;;;7.05;4.45;;;;;;;;;;5065364;28;20457;-36
2021/06/16 04:18:53;;;;;;;8.30;4.40;;;;;;;;;;5057597;28;20056;-35
2021/06/16 04:21:21;;;;;;;8.88;4.57;;;;;;;;;;5069409;28;20041;-35
2021/06/16 04:23:48;;;;;;;11.38;4.65;;;;;;;;;;5073147;28;20454;-36
2021/06/16 04:26:22;;;;;;;9.85;4.40;;;;;;;;;;5059703;28;20041;-36
2021/06/16 04:28:49;;;;;;;8.07;4.57;;;;;;;;;;5071704;28;20094;-36
2021/06/16 04:31:16;;;;;;;8.27;4.28;;;;;;;;;;5072107;28;20044;-35
2021/06/16 04:33:43;;;;;;;6.30;4.20;;;;;;;;;;5071414;28;20091;-35
2021/06/16 04:36:09;;;;;;;7.53;4.35;;;;;;;;;;5065080;28;20056;-34
2021/06/16 04:38:36;;;;;;;8.80;4.60;;;;;;;;;;5074371;28;20098;-36
2021/06/16 04:41:03;;;;;;;7.45;3.92;;;;;;;;;;5073996;28;20102;-35
2021/06/16 04:43:30;;;;;;;7.25;4.43;;;;;;;;;;5067035;28;20140;-35
2021/06/16 04:45:57;;;;;;;7.72;4.15;;;;;;;;;;5069967;28;20094;-35
2021/06/16 04:48:24;;;;;;;8.23;4.82;;;;;;;;;;5061215;28;20095;-36
2021/06/16 04:50:51;;;;;;;8.57;5.40;;;;;;;;;;5068355;28;20071;-36
2021/06/16 04:53:18;;;;;;;10.98;7.45;;;;;;;;;;5072909;28;20048;-36
2021/06/16 04:55:44;;;;;;;7.82;5.45;;;;;;;;;;5069133;28;20080;-36
2021/06/16 04:58:11;;;;;;;8.52;5.22;;;;;;;;;;5066056;28;20056;-35
2021/06/16 05:00:39;;;;;;;8.88;5.07;;;;;;;;;;5073469;28;20481;-35
2021/06/16 05:03:05;;;;;;;11.68;5.57;;;;;;;;;;5072258;28;20110;-36
2021/06/16 05:05:32;;;;;;;8.38;5.97;;;;;;;;;;5065329;28;20060;-35
2021/06/16 05:07:59;;;;;;;11.80;6.05;;;;;;;;;;5064315;28;20072;-36
2021/06/16 05:10:26;;;;;;;9.93;5.22;;;;;;;;;;5057562;28;20989;-36
2021/06/16 05:12:53;;;;;;;9.32;5.78;;;;;;;;;;5064179;28;20608;-36
2021/06/16 05:15:19;;;;;;;8.73;5.85;;;;;;;;;;5065763;28;20040;-36
2021/06/16 05:17:46;;;;;;;7.30;4.50;;;;;;;;;;5069306;28;20071;-36
2021/06/16 05:20:13;;;;;;;8.77;4.82;;;;;;;;;;5072466;28;20071;-36
2021/06/16 05:22:40;;;;;;;10.68;6.25;;;;;;;;;;5072948;28;20048;-36
2021/06/16 05:25:09;;;;;;;9.27;5.63;;;;;;;;;;5071536;28;20069;-35
2021/06/16 05:27:36;;;;;;;8.00;5.07;;;;;;;;;;5063906;28;20666;-35
2021/06/16 05:30:03;;;;;;;10.43;5.60;;;;;;;;;;5072328;28;20045;-36
2021/06/16 05:32:30;;;;;;;9.45;5.50;;;;;;;;;;5066799;28;20131;-36
2021/06/16 05:34:57;;;;;;;9.10;5.00;;;;;;;;;;5071461;28;20052;-37
2021/06/16 05:37:24;;;;;;;8.15;5.97;;;;;;;;;;5069401;28;20052;-36
2021/06/16 05:39:51;;;;;;;13.00;6.88;;;;;;;;;;5073270;28;20124;-36
2021/06/16 05:42:18;;;;;;;9.98;6.32;;;;;;;;;;5064113;28;20467;-36
2021/06/16 05:44:45;;;;;;;9.90;6.38;;;;;;;;;;5075973;28;20052;-36
2021/06/16 05:47:11;;;;;;;7.07;5.40;;;;;;;;;;5080711;28;20069;-36
2021/06/16 05:49:38;;;;;;;9.30;6.20;;;;;;;;;;5077587;28;20100;-36
2021/06/16 05:52:05;;;;;;;10.63;6.50;;;;;;;;;;5079860;28;20057;-35
2021/06/16 05:54:32;;;;;;;8.93;6.10;;;;;;;;;;5070007;28;20143;-34
2021/06/16 05:56:59;;;;;;;10.98;6.30;;;;;;;;;;5065850;28;20040;-38
2021/06/16 05:59:26;;;;;;;9.85;5.50;;;;;;;;;;5069028;28;20049;-37
2021/06/16 06:01:53;;;;;;;7.95;5.85;;;;;;;;;;5072488;28;20072;-37
2021/06/16 06:04:19;;;;;;;13.48;6.43;;;;;;;;;;5070512;28;20052;-37
2021/06/16 06:06:46;;;;;;;12.90;6.72;;;;;;;;;;5068378;28;20382;-36
2021/06/16 06:09:13;;;;;;;10.40;6.55;;;;;;;;;;5069676;28;20041;-37
2021/06/16 06:11:40;;;;;;;13.50;6.47;;;;;;;;;;5063940;28;20045;-37
2021/06/16 06:14:06;;;;;;;10.75;5.88;;;;;;;;;;5072581;28;20132;-37
2021/06/16 06:16:33;;;;;;;9.52;5.38;;;;;;;;;;5062363;28;20045;-38
2021/06/16 06:19:01;;;;;;;9.70;5.30;;;;;;;;;;5064146;28;20056;-38
2021/06/16 06:21:31;;;;;;;11.73;5.53;;;;;;;;;;5074814;28;20130;-37
2021/06/16 06:23:58;;;;;;;10.15;5.78;;;;;;;;;;5075790;28;20159;-38
2021/06/16 06:26:30;;;;;;;8.97;5.63;;;;;;;;;;5071588;28;20094;-38
2021/06/16 06:28:57;;;;;;;8.35;5.95;;;;;;;;;;5075316;28;20277;-38
2021/06/16 06:31:23;;;;;;;10.82;5.65;;;;;;;;;;5075746;28;20045;-38
2021/06/16 06:33:50;;;;;;;7.28;5.40;;;;;;;;;;5072909;28;20068;-38
2021/06/16 06:36:19;;;;;;;7.93;5.43;;;;;;;;;;5072064;28;20123;-38
2021/06/16 06:38:46;;;;;;;10.85;5.55;;;;;;;;;;5060927;28;20086;-37
2021/06/16 06:41:14;;;;;;;10.15;5.55;;;;;;;;;;5038692;28;20079;-38
2021/06/16 06:43:41;;;;;;;11.93;5.57;;;;;;;;;;5069063;28;20052;-37
2021/06/16 06:46:08;;;;;;;10.10;5.28;;;;;;;;;;5072322;28;20048;-38
2021/06/16 06:48:35;;;;;;;13.25;6.18;;;;;;;;;;5062261;28;20433;-38
2021/06/16 06:51:02;;;;;;;9.43;5.40;;;;;;;;;;5060747;28;20049;-37
2021/06/16 06:53:29;;;;;;;12.85;5.40;;;;;;;;;;5059864;28;20095;-38
2021/06/16 06:55:56;;;;;;;9.82;5.15;;;;;;;;;;5070420;28;20052;-38
2021/06/16 06:58:24;;;;;;;7.90;4.72;;;;;;;;;;5063388;28;20052;-38
2021/06/16 07:00:50;;;;;;;10.55;5.13;;;;;;;;;;5079040;28;20079;-38
2021/06/16 07:03:28;;;;;;;7.10;4.15;;;;;;;;;;5072896;28;20549;-38
2021/06/16 07:05:55;;;;;;;5.97;4.43;;;;;;;;;;5027416;28;20052;-37
2021/06/16 07:08:22;;;;;;;6.55;3.67;;;;;;;;;;5033789;28;20053;-37
2021/06/16 07:10:49;;;;;;;11.13;4.10;;;;;;;;;;5033451;28;20088;-37
2021/06/16 07:13:15;;;;;;;6.40;3.70;;;;;;;;;;5028459;28;20045;-38
2021/06/16 07:16:02;;;;;;;6.80;3.85;;;;;;;;;;5014422;28;20214;-38
2021/06/16 07:18:29;;;;;;;5.60;3.40;;;;;;;;;;5002777;28;20101;-37
2021/06/16 07:20:56;;;;;;;8.20;3.53;;;;;;;;;;4996244;28;20137;-38
2021/06/16 07:23:23;;;;;;;7.25;3.63;;;;;;;;;;5008877;28;20058;-37
2021/06/16 07:25:49;;;;;;;10.45;3.97;;;;;;;;;;5014428;28;20057;-38
2021/06/16 07:28:16;;;;;;;7.00;4.22;;;;;;;;;;5011351;28;20077;-38
2021/06/16 07:30:43;;;;;;;11.52;3.47;;;;;;;;;;5014004;28;20061;-36
2021/06/16 07:33:10;;;;;;;8.48;3.40;;;;;;;;;;5015773;28;20092;-37
2021/06/16 07:35:39;;;;;;;5.25;3.20;;;;;;;;;;5015234;28;20065;-37
2021/06/16 07:38:06;;;;;;;8.45;2.95;;;;;;;;;;4996471;28;20050;-37
2021/06/16 07:40:34;;;;;;;6.88;3.15;;;;;;;;;;5010405;28;20113;-37
2021/06/16 07:43:01;;;;;;;7.45;3.38;;;;;;;;;;5014836;28;20053;-37
2021/06/16 07:45:28;;;;;;;5.97;3.38;;;;;;;;;;4992775;28;20065;-37
2021/06/16 07:47:55;;;;;;;6.22;3.38;;;;;;;;;;4994942;28;20154;-37
2021/06/16 07:50:22;;;;;;;8.07;3.22;;;;;;;;;;5002844;28;20066;-37
2021/06/16 07:52:49;;;;;;;5.20;3.20;;;;;;;;;;5015931;28;20057;-36
2021/06/16 07:55:16;;;;;;;7.10;3.20;;;;;;;;;;5030650;28;20115;-37
2021/06/16 07:57:43;;;;;;;4.85;2.90;;;;;;;;;;4996780;28;20452;-37
2021/06/16 08:00:10;;;;;;;5.47;3.30;;;;;;;;;;5003607;28;20053;-37
2021/06/16 08:02:39;;;;;;;6.45;3.15;;;;;;;;;;5007176;28;20061;-38
2021/06/16 08:05:10;;;;;;;6.93;3.50;;;;;;;;;;5001657;28;20042;-37
2021/06/16 08:07:38;;;;;;;5.63;3.20;;;;;;;;;;5004820;28;20049;-37
2021/06/16 08:10:05;;;;;;;5.40;3.33;;;;;;;;;;5006483;28;20073;-37
2021/06/16 08:12:32;;;;;;;7.43;3.50;;;;;;;;;;5005948;28;20085;-37
2021/06/16 08:14:59;;;;;;;6.68;2.95;;;;;;;;;;5006218;28;20060;-37
2021/06/16 08:17:25;;;;;;;8.38;5.53;;;;;;;;;;5004071;28;20058;-37
2021/06/16 08:19:52;;;;;;;9.73;3.65;;;;;;;;;;5002972;28;20080;-37
2021/06/16 08:22:19;;;;;;;6.22;3.20;;;;;;;;;;4999346;28;20038;-37
2021/06/16 08:24:46;;;;;;;4.50;3.00;;;;;;;;;;5008273;28;20545;-37
2021/06/16 08:27:13;;;;;;;6.82;3.10;;;;;;;;;;5004909;28;20046;-37
2021/06/16 08:29:39;;;;;;;5.65;2.67;;;;;;;;;;5006661;28;20444;-37
2021/06/16 08:32:07;;;;;;;8.82;3.10;;;;;;;;;;5007870;28;20097;-37
2021/06/16 08:34:36;;;;;;;5.80;2.72;;;;;;;;;;5006335;28;20898;-37
2021/06/16 08:37:03;;;;;;;6.65;3.25;;;;;;;;;;5005104;28;20050;-37
2021/06/16 08:39:30;;;;;;;7.55;2.85;;;;;;;;;;5008502;28;20169;-37
2021/06/16 08:41:58;;;;;;;11.30;3.08;;;;;;;;;;5007768;28;20081;-38
2021/06/16 08:44:25;;;;;;;6.30;2.80;;;;;;;;;;5009705;28;20050;-37
2021/06/16 08:46:51;;;;;;;9.18;2.88;;;;;;;;;;5009375;28;20477;-37
2021/06/16 08:49:19;;;;;;;6.15;3.67;;;;;;;;;;5001760;28;20081;-37
2021/06/16 08:51:46;;;;;;;6.70;2.63;;;;;;;;;;5003113;28;20069;-37
2021/06/16 08:54:13;;;;;;;7.68;2.75;;;;;;;;;;4989531;28;20135;-36
2021/06/16 08:56:40;;;;;;;6.97;2.30;;;;;;;;;;5005233;28;20084;-37
2021/06/16 08:59:06;;;;;;;5.38;2.38;;;;;;;;;;5006904;28;20463;-37
2021/06/16 09:01:33;;;;;;;6.43;3.00;;;;;;;;;;5008354;28;20125;-37
2021/06/16 09:04:01;;;;;;;5.65;2.67;;;;;;;;;;5007727;28;20395;-37
2021/06/16 09:06:29;;;;;;;5.43;2.70;;;;;;;;;;5005558;28;20133;-38
2021/06/16 09:08:57;;;;;;;6.15;2.45;;;;;;;;;;5003998;28;20073;-37
2021/06/16 09:11:25;;;;;;;4.72;2.45;;;;;;;;;;5002606;28;20077;-37
2021/06/16 09:14:09;;;;;;;7.07;2.85;;;;;;;;;;5012079;28;20069;-37
2021/06/16 09:16:35;;;;;;;7.63;3.40;;;;;;;;;;5002436;28;20117;-37
2021/06/16 09:19:02;;;;;;;3.67;2.60;;;;;;;;;;5004382;28;20046;-37
2021/06/16 09:21:33;;;;;;;4.25;2.70;;;;;;;;;;5005308;28;20061;-38
2021/06/16 09:24:00;;;;;;;6.10;2.70;;;;;;;;;;5004504;28;20062;-37
2021/06/16 09:26:31;;;;;;;5.38;2.35;;;;;;;;;;5005125;28;20057;-38
2021/06/16 09:28:58;;;;;;;6.97;2.83;;;;;;;;;;5003684;28;20957;-37
2021/06/16 09:31:25;;;;;;;9.13;3.10;;;;;;;;;;5008554;28;20140;-37
2021/06/16 09:33:54;;;;;;;8.10;3.22;;;;;;;;;;5006783;28;20573;-37
2021/06/16 09:36:24;;;;;;;5.20;2.60;;;;;;;;;;5002537;28;20050;-38
2021/06/16 09:38:52;;;;;;;7.78;2.67;;;;;;;;;;5004206;28;20045;-37
2021/06/16 09:41:20;;;;;;;8.07;3.25;;;;;;;;;;5003398;28;20124;-37
2021/06/16 09:43:48;;;;;;;4.68;3.08;;;;;;;;;;5003560;28;20192;-37
2021/06/16 09:46:15;;;;;;;4.75;2.67;;;;;;;;;;5011325;28;20157;-37
2021/06/16 09:48:43;;;;;;;7.05;3.10;;;;;;;;;;5009228;28;20042;-37
2021/06/16 09:51:18;;;;;;;6.65;2.92;;;;;;;;;;5008543;28;20121;-37
2021/06/16 09:53:55;;;;;;;4.47;3.13;;;;;;;;;;4991072;28;20128;-38
2021/06/16 09:56:23;;;;;;;6.88;2.97;;;;;;;;;;4991361;28;20050;-37
2021/06/16 09:58:49;;;;;;;4.63;2.47;;;;;;;;;;5008350;28;20062;-37
2021/06/16 10:01:16;;;;;;;6.00;3.00;;;;;;;;;;5011657;28;20054;-37
2021/06/16 10:03:44;;;;;;;4.88;2.70;;;;;;;;;;5004961;28;20061;-37
2021/06/16 10:06:13;;;;;;;4.97;2.80;;;;;;;;;;4987171;28;20345;-37
2021/06/16 10:08:42;;;;;;;4.38;2.75;;;;;;;;;;5001155;28;20076;-37
2021/06/16 10:11:10;;;;;;;4.85;2.67;;;;;;;;;;5006783;28;20054;-37
2021/06/16 10:13:37;;;;;;;4.40;3.13;;;;;;;;;;4987896;28;20053;-37
2021/06/16 10:16:04;;;;;;;9.63;2.60;;;;;;;;;;5003244;28;20057;-38
2021/06/16 10:18:39;;;;;;;5.90;2.50;;;;;;;;;;4985071;28;20058;-38
2021/06/16 10:21:08;;;;;;;4.10;2.30;;;;;;;;;;5007877;28;20042;-38
2021/06/16 10:23:35;;;;;;;4.65;2.55;;;;;;;;;;4988961;28;20037;-38
2021/06/16 10:26:07;;;;;;;4.88;2.60;;;;;;;;;;5003709;28;20096;-38
2021/06/16 10:28:47;;;;;;;4.88;2.30;;;;;;;;;;5010971;28;20144;-38
2021/06/16 10:31:18;;;;;;;3.90;2.75;;;;;;;;;;5009407;28;20061;-38
2021/06/16 10:33:53;;;;;;;7.07;2.65;;;;;;;;;;5004794;28;20522;-37
2021/06/16 10:36:24;;;;;;;3.50;2.75;;;;;;;;;;5005715;28;20137;-37
2021/06/16 10:38:53;;;;;;;4.30;3.00;;;;;;;;;;5008471;28;20129;-38
2021/06/16 10:41:40;;;;;;;5.30;3.00;;;;;;;;;;5007541;28;20080;-37
2021/06/16 10:44:11;;;;;;;4.18;2.60;;;;;;;;;;5007732;28;20042;-37
2021/06/16 10:46:49;;;;;;;5.65;2.50;;;;;;;;;;5009081;28;20188;-37
2021/06/16 10:49:35;;;;;;;7.65;2.45;;;;;;;;;;5007607;28;20133;-37
2021/06/16 10:52:03;;;;;;;5.55;2.35;;;;;;;;;;5013390;28;20115;-38
2021/06/16 10:54:30;;;;;;;4.10;2.53;;;;;;;;;;5015584;28;20090;-37
2021/06/16 10:57:11;;;;;;;4.82;2.33;;;;;;;;;;5012620;28;20042;-38
2021/06/16 10:59:58;;;;;;;7.85;2.30;;;;;;;;;;5010367;28;20566;-38
2021/06/16 11:02:25;;;;;;;3.22;2.25;;;;;;;;;;5013630;28;20084;-38
2021/06/16 11:04:52;;;;;;;5.22;2.50;;;;;;;;;;5005879;28;20053;-38
2021/06/16 11:07:30;;;;;;;3.30;1.77;;;;;;;;;;5006670;28;20133;-37
2021/06/16 11:10:01;;;;;;;3.10;1.90;;;;;;;;;;4997251;28;20124;-38
2021/06/16 11:12:28;;;;;;;3.47;1.95;;;;;;;;;;5008073;28;20045;-38
2021/06/16 11:14:55;;;;;;;3.55;1.92;;;;;;;;;;5007423;28;20060;-38
2021/06/16 11:17:34;;;;;;;2.30;1.90;;;;;;;;;;5005859;28;20066;-38
2021/06/16 11:20:03;;;;;;;4.82;2.22;;;;;;;;;;5008000;28;20050;-38
2021/06/16 11:22:30;;;;;;;4.05;2.55;;;;;;;;;;5011586;28;20080;-38
2021/06/16 11:25:00;;;;;;;5.20;2.58;;;;;;;;;;5010000;28;20069;-38
2021/06/16 11:27:46;;;;;;;4.18;2.53;;;;;;;;;;5001150;28;20146;-38
2021/06/16 11:30:14;;;;;;;4.97;2.55;;;;;;;;;;5001580;28;20412;-38
2021/06/16 11:32:41;;;;;;;4.30;2.17;;;;;;;;;;5011589;28;20061;-38
2021/06/16 11:35:08;;;;;;;4.18;2.35;;;;;;;;;;5012793;28;20483;-38
2021/06/16 11:37:54;;;;;;;3.30;2.10;;;;;;;;;;4998345;28;20504;-38
2021/06/16 11:40:21;;;;;;;4.22;2.20;;;;;;;;;;5006979;28;20132;-38
2021/06/16 11:42:48;;;;;;;4.25;2.60;;;;;;;;;;5012697;28;20041;-36
2021/06/16 11:45:15;;;;;;;4.90;2.22;;;;;;;;;;5005906;28;20128;-36
2021/06/16 11:47:50;;;;;;;3.67;2.13;;;;;;;;;;5007757;28;20045;-37
2021/06/16 11:50:24;;;;;;;4.05;2.33;;;;;;;;;;5005481;28;20046;-36
2021/06/16 11:53:01;;;;;;;4.47;2.38;;;;;;;;;;4989642;28;20073;-36
2021/06/16 11:55:40;;;;;;;4.20;2.47;;;;;;;;;;5010084;28;20128;-37
2021/06/16 11:58:23;;;;;;;7.13;2.35;;;;;;;;;;5001723;28;20074;-37
2021/06/16 12:00:50;;;;;;;5.47;2.30;;;;;;;;;;5007990;28;20069;-37
2021/06/16 12:03:18;;;;;;;4.30;2.38;;;;;;;;;;5009199;28;20053;-37
2021/06/16 12:05:58;;;;;;;5.18;2.17;;;;;;;;;;4994238;28;20042;-37
2021/06/16 12:08:25;;;;;;;4.30;2.20;;;;;;;;;;4993620;28;20050;-37
2021/06/16 12:10:52;;;;;;;3.92;2.55;;;;;;;;;;4993705;28;20050;-37
2021/06/16 12:13:18;;;;;;;4.68;2.30;;;;;;;;;;4993092;28;20093;-38
2021/06/16 12:15:45;;;;;;;3.35;2.00;;;;;;;;;;4976253;28;20137;-37
2021/06/16 12:18:14;;;;;;;4.63;2.15;;;;;;;;;;4994311;28;20133;-37
2021/06/16 12:20:45;;;;;;;4.60;2.50;;;;;;;;;;4994730;28;20154;-38
2021/06/16 12:23:18;;;;;;;3.95;2.40;;;;;;;;;;4994611;28;20096;-38
2021/06/16 12:25:44;;;;;;;3.58;2.10;;;;;;;;;;4992981;28;20058;-37
2021/06/16 12:28:11;;;;;;;3.72;2.20;;;;;;;;;;4975665;28;20102;-38
2021/06/16 12:30:38;;;;;;;3.13;2.40;;;;;;;;;;4975555;28;20051;-37
2021/06/16 12:33:23;;;;;;;5.93;2.30;;;;;;;;;;4993204;28;20108;-38
2021/06/16 12:36:07;;;;;;;5.10;2.00;;;;;;;;;;4994353;28;20152;-38
2021/06/16 12:38:54;;;;;;;6.47;2.05;;;;;;;;;;4994488;28;20483;-38
2021/06/16 12:41:27;;;;;;;4.45;1.85;;;;;;;;;;4994122;28;20054;-37
2021/06/16 12:44:14;;;;;;;3.33;2.20;;;;;;;;;;4992477;28;20050;-37
2021/06/16 12:46:56;;;;;;;3.97;2.00;;;;;;;;;;4992400;28;20127;-37
2021/06/16 12:49:24;;;;;;;4.60;2.20;;;;;;;;;;4992278;28;20081;-37
2021/06/16 12:51:55;;;;;;;2.65;1.70;;;;;;;;;;4992711;28;20455;-38
2021/06/16 12:54:23;;;;;;;5.53;2.03;;;;;;;;;;4994007;28;20484;-38
2021/06/16 12:57:09;;;;;;;4.97;1.95;;;;;;;;;;4993949;28;20077;-38
2021/06/16 12:59:36;;;;;;;3.20;1.80;;;;;;;;;;4993291;28;20065;-38
2021/06/16 13:02:04;;;;;;;3.53;1.80;;;;;;;;;;4992923;28;20120;-38
2021/06/16 13:04:41;;;;;;;7.60;1.90;;;;;;;;;;4992673;28;20750;-38
2021/06/16 13:07:07;;;;;;;2.28;1.50;;;;;;;;;;4992683;28;20088;-37
2021/06/16 13:09:34;;;;;;;2.72;1.88;;;;;;;;;;4991879;28;20414;-38
2021/06/16 13:12:07;;;;;;;4.68;1.90;;;;;;;;;;4992058;28;20130;-37
2021/06/16 13:14:41;;;;;;;4.97;1.70;;;;;;;;;;4992067;28;20078;-37
2021/06/16 13:17:08;;;;;;;5.07;1.50;;;;;;;;;;4992209;28;20129;-37
2021/06/16 13:19:54;;;;;;;3.47;1.65;;;;;;;;;;5011359;28;20057;-37
2021/06/16 13:22:34;;;;;;;2.28;1.65;;;;;;;;;;4994335;28;20262;-38
2021/06/16 13:25:02;;;;;;;2.35;1.58;;;;;;;;;;5012009;28;20129;-38
2021/06/16 13:27:29;;;;;;;3.55;1.60;;;;;;;;;;4999189;28;20061;-38
2021/06/16 13:30:00;;;;;;;3.55;1.83;;;;;;;;;;4992908;28;20490;-38
2021/06/16 13:32:42;;;;;;;5.15;1.83;;;;;;;;;;4992608;28;20566;-38
2021/06/16 13:35:09;;;;;;;2.78;1.70;;;;;;;;;;4992225;28;20137;-38
2021/06/16 13:37:36;;;;;;;3.17;1.60;;;;;;;;;;4992162;28;20057;-38
2021/06/16 13:40:03;;;;;;;3.70;1.50;;;;;;;;;;4992877;28;20080;-38
2021/06/16 13:42:30;;;;;;;2.30;1.88;;;;;;;;;;4992465;28;20462;-38
2021/06/16 13:44:56;;;;;;;2.30;1.50;;;;;;;;;;4992127;28;20055;-38
2021/06/16 13:47:23;;;;;;;3.45;1.60;;;;;;;;;;4994292;28;20050;-38
2021/06/16 13:49:50;;;;;;;3.88;1.90;;;;;;;;;;4991927;28;20054;-38
2021/06/16 13:52:20;;;;;;;4.30;2.00;;;;;;;;;;4992042;28;20121;-37
2021/06/16 13:54:47;;;;;;;4.07;1.70;;;;;;;;;;4991517;28;20150;-38
2021/06/16 13:57:15;;;;;;;4.32;1.73;;;;;;;;;;4997345;28;20578;-38
2021/06/16 13:59:46;;;;;;;3.15;1.77;;;;;;;;;;4997430;28;20054;-38
2021/06/16 14:02:13;;;;;;;5.78;1.80;;;;;;;;;;4996915;28;20156;-38
2021/06/16 14:04:40;;;;;;;5.25;1.73;;;;;;;;;;4995244;28;20512;-38
2021/06/16 14:07:07;;;;;;;4.05;1.80;;;;;;;;;;4995965;28;20054;-38
2021/06/16 14:09:34;;;;;;;4.30;2.00;;;;;;;;;;4995934;28;20043;-38
2021/06/16 14:12:01;;;;;;;3.60;1.80;;;;;;;;;;4998658;28;20462;-38
2021/06/16 14:14:28;;;;;;;4.90;1.73;;;;;;;;;;4995648;28;20050;-38
2021/06/16 14:16:55;;;;;;;5.95;1.55;;;;;;;;;;4995655;28;20085;-38
2021/06/16 14:19:22;;;;;;;3.45;1.80;;;;;;;;;;4993886;28;20082;-37
2021/06/16 14:21:50;;;;;;;2.80;1.60;;;;;;;;;;4995338;28;20141;-38
2021/06/16 14:24:17;;;;;;;2.67;1.77;;;;;;;;;;4995707;28;20133;-38
2021/06/16 14:26:44;;;;;;;4.45;2.00;;;;;;;;;;4995283;28;20523;-38
2021/06/16 14:29:11;;;;;;;4.07;1.85;;;;;;;;;;4977963;28;20129;-38
2021/06/16 14:31:38;;;;;;;3.50;1.70;;;;;;;;;;4995567;28;20038;-38
2021/06/16 14:34:04;;;;;;;3.67;1.70;;;;;;;;;;4995625;28;20038;-38
2021/06/16 14:36:31;;;;;;;2.13;1.60;;;;;;;;;;4995409;28;20396;-38
2021/06/16 14:38:58;;;;;;;3.67;1.75;;;;;;;;;;4995678;28;20081;-38
2021/06/16 14:41:25;;;;;;;3.47;1.70;;;;;;;;;;4995552;28;20133;-38
2021/06/16 14:43:51;;;;;;;3.47;1.90;;;;;;;;;;4995255;28;20693;-37
2021/06/16 14:46:18;;;;;;;4.35;1.75;;;;;;;;;;4994633;28;20050;-38
2021/06/16 14:48:45;;;;;;;3.67;1.88;;;;;;;;;;4995119;28;20104;-37
2021/06/16 14:51:12;;;;;;;2.75;1.70;;;;;;;;;;4995666;28;20133;-38